createdAt,value
2022-10-10T00:01:26.764Z,19.13
2022-10-10T00:03:55.394Z,20.60
2022-10-10T00:06:26.367Z,16.17
2022-10-10T00:08:58.564Z,17.77
2022-10-10T00:11:28.194Z,20.50
2022-10-10T00:13:57.387Z,25.13
2022-10-10T00:16:25.821Z,20.63
2022-10-10T00:18:54.345Z,24.87
2022-10-10T00:21:22.708Z,23.17
2022-10-10T00:23:51.174Z,24.73
2022-10-10T00:26:19.657Z,22.30
2022-10-10T00:28:49.887Z,17.47
2022-10-10T00:31:18.156Z,20.20
2022-10-10T00:33:46.603Z,21.40
2022-10-10T00:36:15.324Z,23.63
2022-10-10T00:38:44.130Z,23.23
2022-10-10T00:41:12.463Z,22.83
2022-10-10T00:43:41.290Z,28.10
2022-10-10T00:46:10.996Z,23.87
2022-10-10T00:48:42.299Z,26.17
2022-10-10T00:51:13.906Z,19.43
2022-10-10T00:53:45.891Z,24.30
2022-10-10T00:56:16.574Z,28.80
2022-10-10T00:58:48.118Z,24.57
2022-10-10T01:01:18.015Z,25.23
2022-10-10T01:03:46.645Z,27.07
2022-10-10T01:06:15.154Z,26.60
2022-10-10T01:08:44.048Z,28.97
2022-10-10T01:11:27.420Z,28.57
2022-10-10T01:14:04.272Z,24.70
2022-10-10T01:16:39.148Z,19.47
2022-10-10T01:19:25.542Z,22.93
2022-10-10T01:22:05.935Z,21.77
2022-10-10T01:24:56.209Z,22.57
2022-10-10T01:27:32.378Z,22.73
2022-10-10T01:30:07.563Z,24.00
2022-10-10T01:32:42.217Z,19.47
2022-10-10T01:35:29.528Z,26.97
2022-10-10T01:38:06.484Z,28.67
2022-10-10T01:40:40.610Z,26.40
2022-10-10T01:43:10.114Z,25.40
2022-10-10T01:45:44.942Z,23.63
2022-10-10T01:48:13.537Z,27.97
2022-10-10T01:51:00.483Z,26.57
2022-10-10T01:53:38.354Z,25.43
2022-10-10T01:56:14.792Z,26.27
2022-10-10T01:58:57.223Z,24.60
2022-10-10T02:01:35.299Z,23.73
2022-10-10T02:04:08.737Z,22.60
2022-10-10T02:06:42.021Z,25.30
2022-10-10T02:09:14.521Z,25.60
2022-10-10T02:11:43.791Z,22.03
2022-10-10T02:14:16.393Z,26.63
2022-10-10T02:16:48.398Z,26.63
2022-10-10T02:19:19.813Z,25.20
2022-10-10T02:21:51.649Z,22.43
2022-10-10T02:24:24.021Z,23.47
2022-10-10T02:26:57.447Z,20.90
2022-10-10T02:29:30.002Z,22.57
2022-10-10T02:32:04.688Z,27.67
2022-10-10T02:34:36.865Z,25.23
2022-10-10T02:37:08.029Z,24.00
2022-10-10T02:39:41.105Z,21.87
2022-10-10T02:42:11.675Z,22.70
2022-10-10T02:44:40.847Z,22.77
2022-10-10T02:47:10.828Z,21.83
2022-10-10T02:49:40.865Z,23.30
2022-10-10T02:52:09.674Z,19.53
2022-10-10T02:54:37.823Z,25.83
2022-10-10T02:57:06.499Z,24.90
2022-10-10T02:59:34.987Z,21.80
2022-10-10T03:02:03.331Z,22.93
2022-10-10T03:04:32.891Z,21.20
2022-10-10T03:07:01.352Z,19.87
2022-10-10T03:09:29.677Z,18.93
2022-10-10T03:11:58.271Z,22.37
2022-10-10T03:14:26.594Z,22.40
2022-10-10T03:16:55.096Z,16.17
2022-10-10T03:19:23.243Z,20.73
2022-10-10T03:21:52.973Z,23.03
2022-10-10T03:24:21.429Z,20.23
2022-10-10T03:26:49.627Z,21.90
2022-10-10T03:29:18.235Z,22.17
2022-10-10T03:31:46.662Z,27.60
2022-10-10T03:34:15.127Z,21.37
2022-10-10T03:36:43.336Z,22.70
2022-10-10T03:39:13.196Z,20.87
2022-10-10T03:41:41.484Z,23.17
2022-10-10T03:44:09.864Z,21.27
2022-10-10T03:46:38.265Z,22.53
2022-10-10T03:49:06.850Z,22.00
2022-10-10T03:51:34.917Z,20.33
2022-10-10T03:54:03.376Z,24.57
2022-10-10T03:56:33.073Z,24.80
2022-10-10T03:59:03.773Z,22.80
2022-10-10T04:01:32.263Z,24.57
2022-10-10T04:04:01.280Z,23.47
2022-10-10T04:06:29.605Z,21.40
2022-10-10T04:08:57.888Z,21.90
2022-10-10T04:11:26.093Z,21.27
2022-10-10T04:13:55.707Z,20.23
2022-10-10T04:16:23.796Z,22.33
2022-10-10T04:18:52.074Z,20.10
2022-10-10T04:21:20.251Z,22.60
2022-10-10T04:23:48.797Z,23.00
2022-10-10T04:26:16.884Z,19.80
2022-10-10T04:28:45.541Z,24.73
2022-10-10T04:31:15.304Z,20.03
2022-10-10T04:33:43.595Z,22.63
2022-10-10T04:36:11.942Z,20.63
2022-10-10T04:38:40.690Z,17.63
2022-10-10T04:41:09.109Z,20.37
2022-10-10T04:43:37.494Z,19.03
2022-10-10T04:46:05.868Z,23.73
2022-10-10T04:48:35.840Z,20.07
2022-10-10T04:51:04.261Z,28.33
2022-10-10T04:53:33.155Z,21.80
2022-10-10T04:56:01.286Z,21.00
2022-10-10T04:58:29.780Z,24.63
2022-10-10T05:00:58.090Z,20.43
2022-10-10T05:03:26.870Z,25.37
2022-10-10T05:05:56.414Z,23.80
2022-10-10T05:08:25.145Z,22.37
2022-10-10T05:10:53.749Z,24.77
2022-10-10T05:13:22.088Z,20.10
2022-10-10T05:15:52.505Z,21.03
2022-10-10T05:18:21.135Z,25.30
2022-10-10T05:20:49.701Z,22.00
2022-10-10T05:23:19.378Z,21.33
2022-10-10T05:25:50.126Z,23.13
2022-10-10T05:28:18.837Z,20.00
2022-10-10T05:30:47.203Z,21.87
2022-10-10T05:33:15.618Z,22.80
2022-10-10T05:35:43.713Z,18.27
2022-10-10T05:38:11.986Z,18.60
2022-10-10T05:40:42.116Z,25.37
2022-10-10T05:43:11.057Z,25.77
2022-10-10T05:45:39.199Z,19.83
2022-10-10T05:48:07.828Z,22.30
2022-10-10T05:50:39.349Z,25.27
2022-10-10T05:53:08.003Z,25.20
2022-10-10T05:55:36.754Z,30.47
2022-10-10T05:58:06.728Z,25.47
2022-10-10T06:00:36.539Z,24.77
2022-10-10T06:03:05.273Z,21.00
2022-10-10T06:05:34.100Z,19.47
2022-10-10T06:08:09.355Z,22.83
2022-10-10T06:10:41.594Z,18.23
2022-10-10T06:13:11.852Z,27.77
2022-10-10T06:15:41.221Z,24.27
2022-10-10T06:18:10.085Z,27.00
2022-10-10T06:20:40.541Z,23.90
2022-10-10T06:23:09.711Z,22.47
2022-10-10T06:25:41.153Z,21.20
2022-10-10T06:28:11.839Z,19.97
2022-10-10T06:30:43.832Z,23.43
2022-10-10T06:33:13.580Z,21.10
2022-10-10T06:35:42.973Z,22.27
2022-10-10T06:38:12.292Z,18.00
2022-10-10T06:40:41.282Z,29.13
2022-10-10T06:43:13.126Z,20.03
2022-10-10T06:45:43.721Z,16.37
2022-10-10T06:48:14.379Z,23.00
2022-10-10T06:50:42.696Z,14.73
2022-10-10T06:53:11.307Z,20.67
2022-10-10T06:55:39.555Z,17.90
2022-10-10T06:58:08.435Z,17.97
2022-10-10T07:00:37.913Z,18.37
2022-10-10T07:03:06.328Z,17.63
2022-10-10T07:05:34.463Z,19.23
2022-10-10T07:08:02.837Z,17.00
2022-10-10T07:10:30.933Z,18.17
2022-10-10T07:12:59.297Z,15.50
2022-10-10T07:15:27.497Z,16.23
2022-10-10T07:18:00.905Z,16.17
2022-10-10T07:20:29.176Z,17.80
2022-10-10T07:22:57.806Z,19.27
2022-10-10T07:25:26.411Z,16.20
2022-10-10T07:27:54.791Z,19.23
2022-10-10T07:30:22.860Z,19.93
2022-10-10T07:32:51.702Z,17.47
2022-10-10T07:35:21.777Z,18.43
2022-10-10T07:37:50.288Z,15.70
2022-10-10T07:40:18.535Z,22.17
2022-10-10T07:42:47.069Z,17.77
2022-10-10T07:45:15.510Z,17.67
2022-10-10T07:47:43.904Z,19.77
2022-10-10T07:50:12.794Z,20.83
2022-10-10T07:52:42.616Z,17.13
2022-10-10T07:55:11.528Z,13.33
2022-10-10T07:57:40.029Z,16.87
2022-10-10T08:00:10.442Z,18.97
2022-10-10T08:02:42.431Z,15.43
2022-10-10T08:05:12.991Z,19.23
2022-10-10T08:07:42.739Z,17.17
2022-10-10T08:10:11.219Z,18.20
2022-10-10T08:12:39.844Z,17.17
2022-10-10T08:15:08.911Z,17.87
2022-10-10T08:17:37.814Z,18.83
2022-10-10T08:20:07.530Z,19.43
2022-10-10T08:22:35.901Z,18.43
2022-10-10T08:25:06.047Z,18.73
2022-10-10T08:27:34.607Z,16.13
2022-10-10T08:30:02.746Z,14.70
2022-10-10T08:32:31.583Z,15.30
2022-10-10T08:34:59.876Z,17.67
2022-10-10T08:37:31.828Z,17.60
2022-10-10T08:40:05.054Z,14.47
2022-10-10T08:42:42.013Z,15.37
2022-10-10T08:45:17.755Z,16.93
2022-10-10T08:47:50.398Z,16.13
2022-10-10T08:50:24.405Z,19.03
2022-10-10T08:52:58.708Z,26.80
2022-10-10T08:55:33.586Z,27.80
2022-10-10T08:58:06.930Z,20.13
2022-10-10T09:00:40.911Z,17.50
2022-10-10T09:03:20.202Z,16.00
2022-10-10T09:06:05.696Z,16.53
2022-10-10T09:08:49.906Z,15.33
2022-10-10T09:11:34.305Z,15.77
2022-10-10T09:14:18.623Z,12.87
2022-10-10T09:16:54.300Z,14.43
2022-10-10T09:19:34.825Z,15.27
2022-10-10T09:22:09.574Z,12.90
2022-10-10T09:24:43.629Z,13.23
2022-10-10T09:27:17.617Z,13.57
2022-10-10T09:29:51.858Z,12.57
2022-10-10T09:32:23.236Z,12.40
2022-10-10T09:34:56.202Z,14.90
2022-10-10T09:37:46.185Z,12.40
2022-10-10T09:40:23.594Z,11.97
2022-10-10T09:42:53.180Z,12.47
2022-10-10T09:45:28.131Z,14.30
2022-10-10T09:47:57.570Z,7.77
2022-10-10T09:50:26.412Z,10.47
2022-10-10T09:52:55.317Z,10.40
2022-10-10T09:55:27.558Z,12.55
2022-10-10T09:58:03.602Z,14.18
2022-10-10T10:00:37.103Z,10.77
2022-10-10T10:03:17.056Z,14.27
2022-10-10T10:05:48.270Z,11.45
2022-10-10T10:08:22.982Z,12.40
2022-10-10T10:10:51.576Z,8.77
2022-10-10T10:13:26.187Z,10.88
2022-10-10T10:16:11.090Z,10.60
2022-10-10T10:18:41.667Z,9.45
2022-10-10T10:21:14.412Z,8.73
2022-10-10T10:23:44.938Z,8.80
2022-10-10T10:26:20.593Z,9.90
2022-10-10T10:28:51.826Z,11.88
2022-10-10T10:31:48.178Z,10.57
2022-10-10T10:34:38.077Z,9.07
2022-10-10T10:37:18.891Z,9.55
2022-10-10T10:39:59.765Z,8.85
2022-10-10T10:42:47.342Z,8.38
2022-10-10T10:45:21.804Z,8.80
2022-10-10T10:48:00.820Z,10.23
2022-10-10T10:50:45.703Z,8.85
2022-10-10T10:53:22.878Z,13.20
2022-10-10T10:55:55.983Z,8.30
2022-10-10T11:01:56.922Z,9.20
2022-10-10T11:05:25.202Z,7.35
2022-10-10T11:07:50.222Z,8.23
2022-10-10T11:10:28.973Z,8.38
2022-10-10T11:13:04.102Z,7.43
2022-10-10T11:18:36.186Z,8.80
2022-10-10T11:21:10.256Z,6.63
2022-10-10T11:23:44.440Z,9.82
2022-10-10T11:26:21.021Z,8.15
2022-10-10T11:28:54.891Z,8.18
2022-10-10T11:31:27.302Z,6.95
2022-10-10T11:34:00.984Z,8.48
2022-10-10T11:36:32.740Z,8.93
2022-10-10T11:39:05.411Z,8.45
2022-10-10T11:41:41.728Z,8.38
2022-10-10T11:44:16.282Z,9.10
2022-10-10T11:46:51.697Z,7.03
2022-10-10T11:49:31.986Z,6.20
2022-10-10T11:52:33.138Z,6.70
2022-10-10T11:55:10.973Z,8.65
2022-10-10T11:57:46.363Z,9.13
2022-10-10T12:00:16.738Z,11.35
2022-10-10T12:02:47.659Z,12.25
2022-10-10T12:05:25.845Z,10.15
2022-10-10T12:08:11.495Z,13.80
2022-10-10T12:10:46.762Z,19.10
2022-10-10T12:13:28.989Z,11.45
2022-10-10T12:16:02.742Z,12.63
2022-10-10T12:18:39.574Z,16.65
2022-10-10T12:21:11.976Z,12.38
2022-10-10T12:23:42.878Z,6.47
2022-10-10T12:26:20.145Z,11.30
2022-10-10T12:29:04.438Z,8.73
2022-10-10T12:31:35.967Z,10.20
2022-10-10T12:34:14.436Z,9.52
2022-10-10T12:37:00.462Z,7.95
2022-10-10T12:39:38.252Z,6.97
2022-10-10T12:42:27.945Z,15.88
2022-10-10T12:44:56.417Z,10.20
2022-10-10T12:48:04.012Z,10.43
2022-10-10T12:50:36.026Z,9.02
2022-10-10T12:53:08.057Z,7.80
2022-10-10T12:55:43.585Z,7.28
2022-10-10T12:58:26.661Z,9.88
2022-10-10T13:00:57.608Z,7.43
2022-10-10T13:03:31.014Z,7.40
2022-10-10T13:06:06.435Z,6.90
2022-10-10T13:08:38.300Z,8.75
2022-10-10T13:11:10.795Z,7.35
2022-10-10T13:13:40.373Z,9.48
2022-10-10T13:16:10.782Z,8.98
2022-10-10T13:18:41.189Z,5.95
2022-10-10T13:21:12.394Z,9.15
2022-10-10T13:26:40.585Z,9.68
2022-10-10T13:29:29.927Z,7.50
2022-10-10T13:32:01.998Z,9.18
2022-10-10T13:34:32.854Z,7.22
2022-10-10T13:37:03.633Z,8.60
2022-10-10T13:39:35.620Z,8.30
2022-10-10T13:42:05.749Z,9.35
2022-10-10T13:44:47.834Z,9.25
2022-10-10T13:47:43.311Z,9.13
2022-10-10T13:50:21.229Z,8.00
2022-10-10T13:52:49.719Z,6.88
2022-10-10T13:55:25.537Z,7.28
2022-10-10T13:57:59.474Z,8.77
2022-10-10T14:00:32.690Z,9.65
2022-10-10T14:03:01.404Z,9.88
2022-10-10T14:05:32.479Z,7.15
2022-10-10T14:08:01.247Z,8.48
2022-10-10T14:10:36.020Z,8.77
2022-10-10T14:13:05.018Z,7.95
2022-10-10T14:15:44.087Z,7.47
2022-10-10T14:18:17.903Z,9.30
2022-10-10T14:20:47.071Z,7.35
2022-10-10T14:23:15.988Z,7.60
2022-10-10T14:25:48.931Z,7.57
2022-10-10T14:28:20.248Z,9.10
2022-10-10T14:30:49.182Z,6.63
2022-10-10T14:33:19.484Z,7.32
2022-10-10T14:35:50.353Z,8.45
2022-10-10T14:38:18.939Z,8.52
2022-10-10T14:40:50.497Z,7.03
2022-10-10T14:43:22.610Z,9.30
2022-10-10T14:45:52.843Z,10.18
2022-10-10T14:48:21.476Z,11.27
2022-10-10T14:50:51.189Z,8.55
2022-10-10T14:53:19.867Z,9.10
2022-10-10T14:55:53.849Z,8.40
2022-10-10T14:58:24.365Z,7.03
2022-10-10T15:00:54.317Z,10.25
2022-10-10T15:03:23.131Z,9.95
2022-10-10T15:05:51.611Z,10.35
2022-10-10T15:08:20.315Z,11.57
2022-10-10T15:10:49.945Z,10.77
2022-10-10T15:13:18.213Z,9.00
2022-10-10T15:15:48.109Z,10.27
2022-10-10T15:18:47.828Z,11.50
2022-10-10T15:21:09.820Z,14.18
2022-10-10T15:23:38.012Z,9.95
2022-10-10T15:26:08.258Z,10.30
2022-10-10T15:28:36.724Z,11.23
2022-10-10T15:31:05.881Z,11.77
2022-10-10T15:33:34.476Z,10.25
2022-10-10T15:36:09.994Z,9.15
2022-10-10T15:38:39.261Z,10.68
2022-10-10T15:41:10.906Z,11.70
2022-10-10T15:43:44.992Z,10.68
2022-10-10T15:46:13.157Z,14.02
2022-10-10T15:48:41.463Z,8.75
2022-10-10T15:51:10.525Z,11.18
2022-10-10T15:53:38.945Z,12.65
2022-10-10T15:56:10.482Z,12.52
2022-10-10T15:58:40.011Z,11.90
2022-10-10T16:01:15.188Z,12.45
2022-10-10T16:03:44.214Z,11.00
2022-10-10T16:06:13.137Z,9.77
2022-10-10T16:08:41.296Z,12.27
2022-10-10T16:11:13.193Z,10.93
2022-10-10T16:13:42.761Z,11.25
2022-10-10T16:16:12.904Z,11.65
2022-10-10T16:18:42.798Z,10.63
2022-10-10T16:21:13.807Z,17.15
2022-10-10T16:23:42.918Z,17.35
2022-10-10T16:26:16.648Z,18.75
2022-10-10T16:28:45.172Z,22.02
2022-10-10T16:31:15.242Z,16.92
2022-10-10T16:33:43.952Z,16.35
2022-10-10T16:36:14.578Z,20.10
2022-10-10T16:38:43.546Z,18.83
2022-10-10T16:41:35.320Z,22.83
2022-10-10T16:44:03.269Z,27.42
2022-10-10T16:46:31.354Z,23.23
2022-10-10T16:49:00.740Z,15.68
2022-10-10T16:51:30.400Z,13.70
2022-10-10T16:54:01.708Z,15.05
2022-10-10T16:56:31.582Z,12.98
2022-10-10T16:59:00.693Z,11.05
2022-10-10T17:01:30.017Z,19.00
2022-10-10T17:04:00.137Z,19.85
2022-10-10T17:06:34.819Z,16.95
2022-10-10T17:09:05.739Z,22.20
2022-10-10T17:11:35.925Z,21.00
2022-10-10T17:14:04.580Z,17.48
2022-10-10T17:19:21.476Z,20.98
2022-10-10T17:21:49.947Z,17.67
2022-10-10T17:24:18.327Z,12.85
2022-10-10T17:26:48.225Z,19.55
2022-10-10T17:29:16.394Z,24.88
2022-10-10T17:31:44.953Z,23.70
2022-10-10T17:34:13.402Z,17.00
2022-10-10T17:36:41.515Z,15.45
2022-10-10T17:39:09.958Z,21.85
2022-10-10T17:41:38.943Z,20.42
2022-10-10T17:44:10.611Z,25.55
2022-10-10T17:46:39.765Z,26.52
2022-10-10T17:49:10.778Z,26.70
2022-10-10T17:51:41.484Z,19.70
2022-10-10T17:54:10.582Z,18.17
2022-10-10T17:56:39.063Z,20.27
2022-10-10T17:59:09.513Z,25.33
2022-10-10T18:01:38.703Z,28.75
2022-10-10T18:04:07.799Z,21.52
2022-10-10T18:06:38.263Z,26.90
2022-10-10T18:09:07.362Z,22.55
2022-10-10T18:11:35.530Z,23.02
2022-10-10T18:14:03.749Z,19.83
2022-10-10T18:16:34.806Z,18.52
2022-10-10T18:19:04.280Z,16.02
2022-10-10T18:21:32.753Z,19.08
2022-10-10T18:24:01.647Z,15.68
2022-10-10T18:26:31.326Z,21.33
2022-10-10T18:29:00.144Z,18.92
2022-10-10T18:31:30.064Z,17.05
2022-10-10T18:33:59.696Z,19.65
2022-10-10T18:36:30.668Z,19.25
2022-10-10T18:38:59.779Z,18.63
2022-10-10T18:41:33.839Z,23.20
2022-10-10T18:44:03.581Z,19.15
2022-10-10T18:46:32.018Z,18.95
2022-10-10T18:49:02.131Z,20.58
2022-10-10T18:51:31.154Z,23.42
2022-10-10T18:54:03.245Z,22.00
2022-10-10T18:56:33.285Z,22.63
2022-10-10T18:59:03.482Z,23.02
2022-10-10T19:01:35.178Z,18.45
2022-10-10T19:04:06.296Z,19.77
2022-10-10T19:06:34.800Z,22.98
2022-10-10T19:09:03.820Z,18.48
2022-10-10T19:11:34.584Z,21.40
2022-10-10T19:14:05.440Z,22.27
2022-10-10T19:16:34.563Z,21.63
2022-10-10T19:19:05.171Z,22.85
2022-10-10T19:21:35.232Z,26.00
2022-10-10T19:24:06.164Z,26.73
2022-10-10T19:26:35.223Z,25.08
2022-10-10T19:29:07.349Z,28.20
2022-10-10T19:31:36.787Z,25.02
2022-10-10T19:34:06.608Z,25.33
2022-10-10T19:36:38.421Z,28.10
2022-10-10T19:39:08.770Z,26.70
2022-10-10T19:41:36.985Z,31.80
2022-10-10T19:44:05.816Z,25.48
2022-10-10T19:46:37.353Z,28.58
2022-10-10T19:49:07.926Z,29.60
2022-10-10T19:51:36.332Z,33.83
2022-10-10T19:54:04.787Z,27.67
2022-10-10T19:56:33.003Z,28.88
2022-10-10T19:59:04.426Z,33.22
2022-10-10T20:01:33.345Z,32.45
2022-10-10T20:04:01.685Z,29.65
2022-10-10T20:06:31.477Z,26.85
2022-10-10T20:08:59.842Z,30.58
2022-10-10T20:11:28.127Z,26.08
2022-10-10T20:13:57.488Z,32.05
2022-10-10T20:16:27.672Z,29.58
2022-10-10T20:18:58.140Z,34.58
2022-10-10T20:21:31.464Z,29.25
2022-10-10T20:24:03.047Z,23.92
2022-10-10T20:26:31.595Z,24.23
2022-10-10T20:29:00.360Z,32.83
2022-10-10T20:31:30.769Z,26.40
2022-10-10T20:34:01.683Z,25.77
2022-10-10T20:36:31.055Z,27.50
2022-10-10T20:39:04.766Z,30.60
2022-10-10T20:41:34.998Z,26.75
2022-10-10T20:44:05.741Z,29.15
2022-10-10T20:46:36.126Z,28.83
2022-10-10T20:49:07.510Z,29.33
2022-10-10T20:51:35.746Z,28.02
2022-10-10T20:54:07.076Z,28.67
2022-10-10T20:56:37.056Z,28.33
2022-10-10T20:59:06.849Z,35.05
2022-10-10T21:01:35.891Z,30.65
2022-10-10T21:04:05.357Z,25.10
2022-10-10T21:06:35.438Z,27.70
2022-10-10T21:09:08.506Z,29.60
2022-10-10T21:11:39.048Z,29.50
2022-10-10T21:14:07.735Z,30.88
2022-10-10T21:16:37.797Z,29.98
2022-10-10T21:19:09.104Z,28.00
2022-10-10T21:21:37.850Z,27.42
2022-10-10T21:24:12.043Z,24.52
2022-10-10T21:26:41.574Z,24.65
2022-10-10T21:29:10.154Z,24.30
2022-10-10T21:31:40.044Z,25.98
2022-10-10T21:34:13.284Z,26.55
2022-10-10T21:36:41.877Z,25.02
2022-10-10T21:39:12.368Z,28.75
2022-10-10T21:41:40.945Z,24.27
2022-10-10T21:44:10.760Z,25.30
2022-10-10T21:46:39.526Z,24.67
2022-10-10T21:49:10.217Z,27.48
2022-10-10T21:51:41.503Z,25.40
2022-10-10T21:54:12.073Z,23.25
2022-10-10T21:56:40.812Z,22.23
2022-10-10T21:59:09.329Z,25.90
2022-10-10T22:01:37.897Z,23.15
2022-10-10T22:04:06.735Z,21.75
2022-10-10T22:06:35.375Z,24.23
2022-10-10T22:09:04.048Z,27.08
2022-10-10T22:11:35.261Z,20.73
2022-10-10T22:14:03.672Z,20.42
2022-10-10T22:16:32.624Z,21.15
2022-10-10T22:19:01.948Z,23.27
2022-10-10T22:21:32.487Z,23.77
2022-10-10T22:24:02.533Z,23.30
2022-10-10T22:26:31.648Z,22.40
2022-10-10T22:29:01.366Z,24.08
2022-10-10T22:31:30.091Z,22.10
2022-10-10T22:33:58.801Z,24.55
2022-10-10T22:36:27.200Z,25.55
2022-10-10T22:38:55.714Z,21.52
2022-10-10T22:41:23.798Z,22.52
2022-10-10T22:43:52.115Z,18.33
2022-10-10T22:46:21.751Z,19.92
2022-10-10T22:48:49.863Z,22.90
2022-10-10T22:51:19.158Z,18.98
2022-10-10T22:53:48.996Z,22.52
2022-10-10T22:56:20.173Z,20.95
2022-10-10T22:58:51.353Z,20.27
2022-10-10T23:01:24.076Z,18.38
2022-10-10T23:03:55.920Z,19.55
2022-10-10T23:06:24.165Z,18.90
2022-10-10T23:08:52.497Z,19.23
2022-10-10T23:11:20.686Z,22.52
2022-10-10T23:13:48.861Z,17.13
2022-10-10T23:16:17.134Z,15.95
2022-10-10T23:18:46.672Z,20.80
2022-10-10T23:21:14.864Z,17.27
2022-10-10T23:23:43.553Z,18.65
2022-10-10T23:26:12.183Z,18.88
2022-10-10T23:28:40.274Z,15.77
2022-10-10T23:31:10.383Z,18.13
2022-10-10T23:33:39.142Z,18.08
2022-10-10T23:36:12.126Z,16.08
2022-10-10T23:38:41.256Z,22.58
2022-10-10T23:41:10.031Z,17.45
2022-10-10T23:43:38.454Z,16.75
2022-10-10T23:46:07.647Z,13.43
2022-10-10T23:48:36.831Z,17.23
2022-10-10T23:51:05.214Z,15.23
2022-10-10T23:53:35.223Z,15.05
2022-10-10T23:56:03.864Z,18.67
2022-10-10T23:58:32.282Z,17.88
